地図

経路データ

SID SEASON NUMBER BASIN SUBBASIN NAME ISO_TIME NATURE LAT LON WMO_WIND WMO_PRES WMO_AGENCY TRACK_TYPE DIST2LAND LANDFALL IFLAG USA_AGENCY USA_ATCF_ID USA_LAT USA_LON USA_RECORD USA_STATUS USA_WIND USA_PRES USA_SSHS USA_R34_NE USA_R34_SE USA_R34_SW USA_R34_NW USA_R50_NE USA_R50_SE USA_R50_SW USA_R50_NW USA_R64_NE USA_R64_SE USA_R64_SW USA_R64_NW USA_POCI USA_ROCI USA_RMW USA_EYE TOKYO_LAT TOKYO_LON TOKYO_GRADE TOKYO_WIND TOKYO_PRES TOKYO_R50_DIR TOKYO_R50_LONG TOKYO_R50_SHORT TOKYO_R30_DIR TOKYO_R30_LONG TOKYO_R30_SHORT TOKYO_LAND CMA_LAT CMA_LON CMA_CAT CMA_WIND CMA_PRES HKO_LAT HKO_LON HKO_CAT HKO_WIND HKO_PRES NEWDELHI_LAT NEWDELHI_LON NEWDELHI_GRADE NEWDELHI_WIND NEWDELHI_PRES NEWDELHI_CI NEWDELHI_DP NEWDELHI_POCI REUNION_LAT REUNION_LON REUNION_TYPE REUNION_WIND REUNION_PRES REUNION_TNUM REUNION_CI REUNION_RMW REUNION_R34_NE REUNION_R34_SE REUNION_R34_SW REUNION_R34_NW REUNION_R50_NE REUNION_R50_SE REUNION_R50_SW REUNION_R50_NW REUNION_R64_NE REUNION_R64_SE REUNION_R64_SW REUNION_R64_NW BOM_LAT BOM_LON BOM_TYPE BOM_WIND BOM_PRES BOM_TNUM BOM_CI BOM_RMW BOM_R34_NE BOM_R34_SE BOM_R34_SW BOM_R34_NW BOM_R50_NE BOM_R50_SE BOM_R50_SW BOM_R50_NW BOM_R64_NE BOM_R64_SE BOM_R64_SW BOM_R64_NW BOM_ROCI BOM_POCI BOM_EYE BOM_POS_METHOD BOM_PRES_METHOD NADI_LAT NADI_LON NADI_CAT NADI_WIND NADI_PRES WELLINGTON_LAT WELLINGTON_LON WELLINGTON_WIND WELLINGTON_PRES DS824_LAT DS824_LON DS824_STAGE DS824_WIND DS824_PRES TD9636_LAT TD9636_LON TD9636_STAGE TD9636_WIND TD9636_PRES TD9635_LAT TD9635_LON TD9635_WIND TD9635_PRES TD9635_ROCI NEUMANN_LAT NEUMANN_LON NEUMANN_CLASS NEUMANN_WIND NEUMANN_PRES MLC_LAT MLC_LON MLC_CLASS MLC_WIND MLC_PRES USA_GUST BOM_GUST BOM_GUST_PER REUNION_GUST REUNION_GUST_PER USA_SEAHGT USA_SEARAD_NE USA_SEARAD_SE USA_SEARAD_SW USA_SEARAD_NW STORM_SPEED STORM_DIR
1962272N15311 1962 88 NA NA DAISY 1962-09-29 06:00:00 TS 14.5000 -48.9000 25 hurdat_atl main 1115 1096 O_____________ hurdat_atl AL041962 14.5000 -48.9000 TD 25 -1 15 282
1962272N15311 1962 88 NA NA DAISY 1962-09-29 09:00:00 TS 14.6604 -49.6773 main 1101 1075 P_____________ AL041962 14.6604 -49.6773 TD 25 -1 16 281
1962272N15311 1962 88 NA NA DAISY 1962-09-29 12:00:00 TS 14.8000 -50.5000 25 hurdat_atl main 1075 1056 O_____________ hurdat_atl AL041962 14.8000 -50.5000 TD 25 -1 17 278
1962272N15311 1962 88 NA NA DAISY 1962-09-29 15:00:00 TS 14.9074 -51.3926 main 1053 1040 P_____________ AL041962 14.9074 -51.3926 TD 27 -1 18 277
1962272N15311 1962 88 NA NA DAISY 1962-09-29 18:00:00 TS 15.0000 -52.3000 30 hurdat_atl main 1040 988 O_____________ hurdat_atl AL041962 15.0000 -52.3000 TD 30 -1 17 276
1962272N15311 1962 88 NA NA DAISY 1962-09-29 21:00:00 TS 15.0921 -53.1577 main 978 910 P_____________ AL041962 15.0921 -53.1577 TD 30 -1 17 277
1962272N15311 1962 88 NA NA DAISY 1962-09-30 00:00:00 TS 15.2000 -54.0000 30 hurdat_atl main 910 846 O_____________ hurdat_atl AL041962 15.2000 -54.0000 TD 30 -1 17 279
1962272N15311 1962 88 NA NA DAISY 1962-09-30 03:00:00 TS 15.3422 -54.8500 main 838 786 P_____________ AL041962 15.3422 -54.8500 TD 30 -1 17 280
1962272N15311 1962 88 NA NA DAISY 1962-09-30 06:00:00 TS 15.5000 -55.7000 30 hurdat_atl main 786 733 O_____________ hurdat_atl AL041962 15.5000 -55.7000 TD 30 -1 17 280
1962272N15311 1962 88 NA NA DAISY 1962-09-30 09:00:00 TS 15.6348 -56.5578 main 726 691 P_____________ AL041962 15.6348 -56.5578 TD 30 -1 17 280
1962272N15311 1962 88 NA NA DAISY 1962-09-30 12:00:00 TS 15.8000 -57.4000 30 1005 hurdat_atl main 691 666 O_____________ hurdat_atl AL041962 15.8000 -57.4000 TD 30 1005 -1 17 284
1962272N15311 1962 88 NA NA DAISY 1962-09-30 15:00:00 TS 16.0350 -58.2449 main 666 658 P_____________ AL041962 16.0350 -58.2449 TD 32 1005 -1 16 288
1962272N15311 1962 88 NA NA DAISY 1962-09-30 18:00:00 TS 16.3000 -59.0000 35 1006 hurdat_atl main 663 659 O_____________ hurdat_atl AL041962 16.3000 -59.0000 TS 35 1006 0 14 291
1962272N15311 1962 88 NA NA DAISY 1962-09-30 21:00:00 TS 16.5422 -59.6177 main 664 604 P_____________ AL041962 16.5422 -59.6177 TS 35 0 12 295
1962272N15311 1962 88 NA NA DAISY 1962-10-01 00:00:00 TS 16.8000 -60.1000 35 hurdat_atl main 604 554 O_____________ hurdat_atl AL041962 16.8000 -60.1000 TS 35 0 10 303
1962272N15311 1962 88 NA NA DAISY 1962-10-01 03:00:00 TS 17.0923 -60.4876 main 554 516 P_____________ AL041962 17.0923 -60.4876 TS 35 0 9 312
1962272N15311 1962 88 NA CS DAISY 1962-10-01 06:00:00 TS 17.4000 -60.8000 35 hurdat_atl main 516 479 O_____________ hurdat_atl AL041962 17.4000 -60.8000 TS 35 0 8 314
1962272N15311 1962 88 NA CS DAISY 1962-10-01 09:00:00 TS 17.6700 -61.1152 main 479 444 P_____________ AL041962 17.6700 -61.1152 TS 35 0 8 316
1962272N15311 1962 88 NA CS DAISY 1962-10-01 12:00:00 TS 18.0000 -61.4000 35 1004 hurdat_atl main 444 411 O_____________ hurdat_atl AL041962 18.0000 -61.4000 TS 35 1004 0 10 327
1962272N15311 1962 88 NA NA DAISY 1962-10-01 15:00:00 TS 18.4625 -61.6650 main 411 393 P_____________ AL041962 18.4625 -61.6650 TS 35 0 11 335
1962272N15311 1962 88 NA NA DAISY 1962-10-01 18:00:00 TS 19.0000 -61.9000 35 hurdat_atl main 395 384 O_____________ hurdat_atl AL041962 19.0000 -61.9000 TS 35 0 12 339
1962272N15311 1962 88 NA NA DAISY 1962-10-01 21:00:00 TS 19.5500 -62.1151 main 388 385 P_____________ AL041962 19.5500 -62.1151 TS 35 0 12 341
1962272N15311 1962 88 NA NA DAISY 1962-10-02 00:00:00 TS 20.1000 -62.3000 35 hurdat_atl main 395 395 O_____________ hurdat_atl AL041962 20.1000 -62.3000 TS 35 0 11 344
1962272N15311 1962 88 NA NA DAISY 1962-10-02 03:00:00 TS 20.6149 -62.4502 main 407 407 P_____________ AL041962 20.6149 -62.4502 TS 35 0 10 344
1962272N15311 1962 88 NA NA DAISY 1962-10-02 06:00:00 TS 21.1000 -62.6000 35 1003 hurdat_atl main 435 435 O_____________ hurdat_atl AL041962 21.1000 -62.6000 TS 35 1003 0 10 343
1962272N15311 1962 88 NA NA DAISY 1962-10-02 09:00:00 TS 21.5873 -62.7626 main 462 462 P_____________ AL041962 21.5873 -62.7626 TS 35 1004 0 10 338
1962272N15311 1962 88 NA NA DAISY 1962-10-02 12:00:00 TS 22.0000 -63.0000 35 1005 hurdat_atl main 485 483 O_____________ hurdat_atl AL041962 22.0000 -63.0000 TS 35 1005 0 9 321
1962272N15311 1962 88 NA NA DAISY 1962-10-02 15:00:00 TS 22.2951 -63.3775 main 492 488 P_____________ AL041962 22.2951 -63.3775 TS 37 1004 0 9 304
1962272N15311 1962 88 NA NA DAISY 1962-10-02 18:00:00 TS 22.5000 -63.8000 40 hurdat_atl main 495 491 I_____________ hurdat_atl AL041962 22.5000 -63.8000 TS 40 1004 0 8 297
1962272N15311 1962 88 NA NA DAISY 1962-10-02 21:00:00 TS 22.6649 -64.1652 main 502 496 P_____________ AL041962 22.6649 -64.1652 TS 42 1003 0 7 295
1962272N15311 1962 88 NA NA DAISY 1962-10-03 00:00:00 TS 22.8000 -64.5000 45 1003 hurdat_atl main 505 502 O_____________ hurdat_atl AL041962 22.8000 -64.5000 TS 45 1003 0 7 296
1962272N15311 1962 88 NA NA DAISY 1962-10-03 03:00:00 TS 22.9574 -64.8150 main 521 518 P_____________ AL041962 22.9574 -64.8150 TS 47 1002 0 6 299
1962272N15311 1962 88 NA NA DAISY 1962-10-03 06:00:00 TS 23.1000 -65.1000 50 hurdat_atl main 528 527 I_____________ hurdat_atl AL041962 23.1000 -65.1000 TS 50 1001 0 5 296
1962272N15311 1962 88 NA NA DAISY 1962-10-03 09:00:00 TS 23.1999 -65.3502 main 537 536 P_____________ AL041962 23.1999 -65.3502 TS 50 1000 0 5 293
1962272N15311 1962 88 NA NA DAISY 1962-10-03 12:00:00 TS 23.3000 -65.6000 50 1000 hurdat_atl main 547 547 O_____________ hurdat_atl AL041962 23.3000 -65.6000 TS 50 1000 0 6 296
1962272N15311 1962 88 NA NA DAISY 1962-10-03 15:00:00 TS 23.4425 -65.8925 main 559 559 P_____________ AL041962 23.4425 -65.8925 TS 52 997 0 6 299
1962272N15311 1962 88 NA NA DAISY 1962-10-03 18:00:00 TS 23.6000 -66.2000 55 995 hurdat_atl main 577 570 O_____________ hurdat_atl AL041962 23.6000 -66.2000 TS 55 995 0 6 300
1962272N15311 1962 88 NA NA DAISY 1962-10-03 21:00:00 TS 23.7574 -66.5000 main 580 570 P_____________ AL041962 23.7574 -66.5000 TS 55 994 0 6 299
1962272N15311 1962 88 NA NA DAISY 1962-10-04 00:00:00 TS 23.9000 -66.8000 55 994 hurdat_atl main 575 570 O_____________ hurdat_atl AL041962 23.9000 -66.8000 TS 55 994 0 6 295
1962272N15311 1962 88 NA NA DAISY 1962-10-04 03:00:00 TS 24.0074 -67.0926 main 572 568 P_____________ AL041962 24.0074 -67.0926 TS 57 993 0 6 290
1962272N15311 1962 88 NA NA DAISY 1962-10-04 06:00:00 TS 24.1000 -67.4000 60 hurdat_atl main 570 560 I_____________ hurdat_atl AL041962 24.1000 -67.4000 TS 60 993 0 6 287
1962272N15311 1962 88 NA NA DAISY 1962-10-04 09:00:00 TS 24.1850 -67.7427 main 566 554 P_____________ AL041962 24.1850 -67.7427 TS 62 992 0 7 287
1962272N15311 1962 88 NA NA DAISY 1962-10-04 12:00:00 TS 24.3000 -68.1000 65 992 hurdat_atl main 560 557 O_____________ hurdat_atl AL041962 24.3000 -68.1000 HU 65 992 1 7 294
1962272N15311 1962 88 NA NA DAISY 1962-10-04 15:00:00 TS 24.4775 -68.4650 main 568 564 P_____________ AL041962 24.4775 -68.4650 HU 67 989 1 8 302
1962272N15311 1962 88 NA NA DAISY 1962-10-04 18:00:00 TS 24.7000 -68.8000 70 986 hurdat_atl main 578 573 O_____________ hurdat_atl AL041962 24.7000 -68.8000 HU 70 986 1 7 308
1962272N15311 1962 88 NA NA DAISY 1962-10-04 21:00:00 TS 24.9199 -69.0801 main 574 574 P_____________ AL041962 24.9199 -69.0801 HU 70 985 1 7 318
1962272N15311 1962 88 NA NA DAISY 1962-10-05 00:00:00 TS 25.2000 -69.3000 70 985 hurdat_atl main 585 585 O_____________ hurdat_atl AL041962 25.2000 -69.3000 HU 70 985 1 7 330
1962272N15311 1962 88 NA NA DAISY 1962-10-05 03:00:00 TS 25.5625 -69.4874 main 607 607 P_____________ AL041962 25.5625 -69.4874 HU 70 984 1 8 341
1962272N15311 1962 88 NA NA DAISY 1962-10-05 06:00:00 TS 26.0000 -69.6000 70 984 hurdat_atl main 638 638 O_____________ hurdat_atl AL041962 26.0000 -69.6000 HU 70 984 1 9 353
1962272N15311 1962 88 NA NA DAISY 1962-10-05 09:00:00 TS 26.4850 -69.6227 main 685 685 P_____________ AL041962 26.4850 -69.6227 HU 75 978 1 10 1
1962272N15311 1962 88 NA NA DAISY 1962-10-05 12:00:00 TS 27.0000 -69.6000 80 973 hurdat_atl main 734 734 O_____________ hurdat_atl AL041962 27.0000 -69.6000 HU 80 973 1 10 1
1962272N15311 1962 88 NA NA DAISY 1962-10-05 15:00:00 TS 27.4850 -69.6221 main 783 783 P_____________ AL041962 27.4850 -69.6221 HU 82 971 1 10 1
1962272N15311 1962 88 NA NA DAISY 1962-10-05 18:00:00 TS 28.0000 -69.6000 85 969 hurdat_atl main 833 833 O_____________ hurdat_atl AL041962 28.0000 -69.6000 HU 85 969 2 11 5
1962272N15311 1962 88 NA NA DAISY 1962-10-05 21:00:00 TS 28.5549 -69.5019 main 898 898 P_____________ AL041962 28.5549 -69.5019 HU 85 969 2 12 12
1962272N15311 1962 88 NA NA DAISY 1962-10-06 00:00:00 TS 29.2000 -69.3000 85 970 hurdat_atl main 913 882 O_____________ hurdat_atl AL041962 29.2000 -69.3000 HU 85 970 2 15 18
1962272N15311 1962 88 NA NA DAISY 1962-10-06 03:00:00 TS 29.9551 -68.9801 main 874 848 P_____________ AL041962 29.9551 -68.9801 HU 87 968 2 17 21
1962272N15311 1962 88 NA NA DAISY 1962-10-06 06:00:00 TS 30.8000 -68.6000 90 hurdat_atl main 848 812 I_____________ hurdat_atl AL041962 30.8000 -68.6000 HU 90 967 2 18 20
1962272N15311 1962 88 NA NA DAISY 1962-10-06 09:00:00 TS 31.6549 -68.2491 main 813 786 P_____________ AL041962 31.6549 -68.2491 HU 90 966 2 19 18
1962272N15311 1962 88 NA NA DAISY 1962-10-06 12:00:00 TS 32.6000 -67.9000 90 965 hurdat_atl main 783 760 O_____________ hurdat_atl AL041962 32.6000 -67.9000 HU 90 965 2 21 16
1962272N15311 1962 88 NA NA DAISY 1962-10-06 15:00:00 TS 33.6324 -67.5632 main 760 754 P_____________ AL041962 33.6324 -67.5632 HU 90 966 2 23 15
1962272N15311 1962 88 NA NA DAISY 1962-10-06 18:00:00 TS 34.8000 -67.2000 90 968 hurdat_atl main 759 681 O_____________ hurdat_atl AL041962 34.8000 -67.2000 HU 90 968 2 26 15
1962272N15311 1962 88 NA NA DAISY 1962-10-06 21:00:00 TS 36.1428 -66.7367 main 685 573 P_____________ AL041962 36.1428 -66.7367 HU 90 966 2 28 15
1962272N15311 1962 88 NA NA DAISY 1962-10-07 00:00:00 TS 37.5000 -66.3000 90 hurdat_atl main 564 483 I_____________ hurdat_atl AL041962 37.5000 -66.3000 HU 90 965 2 26 14
1962272N15311 1962 88 NA NA DAISY 1962-10-07 03:00:00 TS 38.6872 -65.9389 main 481 417 P_____________ AL041962 38.6872 -65.9389 HU 90 964 2 23 10
1962272N15311 1962 88 NA NA DAISY 1962-10-07 06:00:00 TS 39.8000 -65.8000 90 963 hurdat_atl main 411 279 O_____________ hurdat_atl AL041962 39.8000 -65.8000 HU 90 963 2 23 359
1962272N15311 1962 88 NA NA DAISY 1962-10-07 09:00:00 TS 41.0201 -66.0201 main 279 176 P_____________ AL041962 41.0201 -66.0201 HU 90 956 2 22 348
1962272N15311 1962 88 NA NA DAISY 1962-10-07 12:00:00 ET 42.0000 -66.4000 90 950 hurdat_atl main 176 142 O_____________ hurdat_atl AL041962 42.0000 -66.4000 EX 90 950 -4 15 340
1962272N15311 1962 88 NA NA DAISY 1962-10-07 15:00:00 ET 42.4549 -66.7258 main 137 128 P_____________ AL041962 42.4549 -66.7258 EX 85 -4 8 332
1962272N15311 1962 88 NA NA DAISY 1962-10-07 18:00:00 ET 42.7000 -66.9000 80 hurdat_atl main 128 92 O_____________ hurdat_atl AL041962 42.7000 -66.9000 EX 80 -4 7 351
1962272N15311 1962 88 NA NA DAISY 1962-10-07 21:00:00 ET 43.1064 -66.8645 main 92 39 P_____________ AL041962 43.1064 -66.8645 EX 75 -4 9 20
1962272N15311 1962 88 NA NA DAISY 1962-10-08 00:00:00 ET 43.5000 -66.5000 70 hurdat_atl main 39 0 O_____________ hurdat_atl AL041962 43.5000 -66.5000 EX 70 -4 11 49
1962272N15311 1962 88 NA NA DAISY 1962-10-08 03:00:00 ET 43.8163 -65.7330 main 0 0 P_____________ AL041962 43.8163 -65.7330 EX 67 -4 14 64
1962272N15311 1962 88 NA NA DAISY 1962-10-08 06:00:00 ET 44.1000 -64.8000 65 hurdat_atl main 0 0 O_____________ hurdat_atl AL041962 44.1000 -64.8000 EX 65 -4 13 64
1962272N15311 1962 88 NA NA DAISY 1962-10-08 09:00:00 ET 44.3987 -64.0562 main 11 0 P_____________ AL041962 44.3987 -64.0562 EX 60 -4 12 61
1962272N15311 1962 88 NA NA DAISY 1962-10-08 12:00:00 ET 44.7000 -63.3000 55 hurdat_atl main 0 0 O_____________ hurdat_atl AL041962 44.7000 -63.3000 EX 55 -4 13 61
1962272N15311 1962 88 NA NA DAISY 1962-10-08 15:00:00 ET 45.0294 -62.4382 main 0 0 P_____________ AL041962 45.0294 -62.4382 EX 52 -4 14 65
1962272N15311 1962 88 NA NA DAISY 1962-10-08 18:00:00 ET 45.3000 -61.5000 50 hurdat_atl main 0 0 O_____________ hurdat_atl AL041962 45.3000 -61.5000 EX 50 -4 13 73
1962272N15311 1962 88 NA NA DAISY 1962-10-08 21:00:00 ET 45.3996 -60.7044 main 22 22 P_____________ AL041962 45.3996 -60.7044 EX 50 -4 14 82
1962272N15311 1962 88 NA NA DAISY 1962-10-09 00:00:00 ET 45.5000 -59.5000 50 hurdat_atl main 57 57 O_____________ hurdat_atl AL041962 45.5000 -59.5000 EX 50 -4 23 82
1962272N15311 1962 88 NA NA DAISY 1962-10-09 03:00:00 ET 45.7276 -57.4643 main 184 93 P_____________ AL041962 45.7276 -57.4643 EX 50 -4 32 81
1962272N15311 1962 88 NA NA DAISY 1962-10-09 06:00:00 ET 46.0000 -54.9000 50 hurdat_atl main 103 O_____________ hurdat_atl AL041962 46.0000 -54.9000 EX 50 -4 36 81

IBTrACS Databaseについて

本データベースは、米国NOAAが公開する1842年以降の世界の熱帯低気圧のベストトラックデータアーカイブInternational Best Track Archive for Climate Stewardship (IBTrACS)を、ウェブで閲覧しやすい形式に変換したものです。

最終更新日:2021-12-06